sensor_id;sensor_type;location;lat;lon;timestamp;temperature;humidity
56729;DHT22;42612;52.232;7.560;2023-11-22T00:01:04;9.70;62.60
56729;DHT22;42612;52.232;7.560;2023-11-22T00:03:31;9.70;62.40
56729;DHT22;42612;52.232;7.560;2023-11-22T00:05:57;9.80;62.50
56729;DHT22;42612;52.232;7.560;2023-11-22T00:08:22;9.70;62.40
56729;DHT22;42612;52.232;7.560;2023-11-22T00:10:48;9.70;62.30
56729;DHT22;42612;52.232;7.560;2023-11-22T00:13:14;9.80;62.40
56729;DHT22;42612;52.232;7.560;2023-11-22T00:15:40;9.80;62.30
56729;DHT22;42612;52.232;7.560;2023-11-22T00:18:05;9.80;62.30
56729;DHT22;42612;52.232;7.560;2023-11-22T00:20:31;9.70;62.20
56729;DHT22;42612;52.232;7.560;2023-11-22T00:22:59;9.70;62.30
56729;DHT22;42612;52.232;7.560;2023-11-22T00:25:24;9.70;62.30
56729;DHT22;42612;52.232;7.560;2023-11-22T00:27:50;9.70;62.40
56729;DHT22;42612;52.232;7.560;2023-11-22T00:30:16;9.60;62.30
56729;DHT22;42612;52.232;7.560;2023-11-22T00:32:43;9.70;62.30
56729;DHT22;42612;52.232;7.560;2023-11-22T00:35:09;9.60;62.10
56729;DHT22;42612;52.232;7.560;2023-11-22T00:37:35;9.60;62.20
56729;DHT22;42612;52.232;7.560;2023-11-22T00:40:01;9.60;62.90
56729;DHT22;42612;52.232;7.560;2023-11-22T00:42:38;9.60;62.20
56729;DHT22;42612;52.232;7.560;2023-11-22T00:45:07;9.50;62.20
56729;DHT22;42612;52.232;7.560;2023-11-22T00:47:35;9.50;62.20
56729;DHT22;42612;52.232;7.560;2023-11-22T00:50:02;9.50;62.30
56729;DHT22;42612;52.232;7.560;2023-11-22T00:52:30;9.60;62.50
56729;DHT22;42612;52.232;7.560;2023-11-22T00:54:56;9.60;62.50
56729;DHT22;42612;52.232;7.560;2023-11-22T00:57:22;9.60;62.50
56729;DHT22;42612;52.232;7.560;2023-11-22T00:59:48;9.60;62.40
56729;DHT22;42612;52.232;7.560;2023-11-22T01:02:15;9.70;62.40
56729;DHT22;42612;52.232;7.560;2023-11-22T01:04:41;9.70;62.30
56729;DHT22;42612;52.232;7.560;2023-11-22T01:07:06;9.70;62.20
56729;DHT22;42612;52.232;7.560;2023-11-22T01:09:35;9.80;62.10
56729;DHT22;42612;52.232;7.560;2023-11-22T01:12:01;9.80;61.90
56729;DHT22;42612;52.232;7.560;2023-11-22T01:14:27;9.80;61.90
56729;DHT22;42612;52.232;7.560;2023-11-22T01:16:54;9.80;61.80
56729;DHT22;42612;52.232;7.560;2023-11-22T01:19:20;9.90;61.80
56729;DHT22;42612;52.232;7.560;2023-11-22T01:21:46;9.90;61.60
56729;DHT22;42612;52.232;7.560;2023-11-22T01:24:12;9.90;61.50
56729;DHT22;42612;52.232;7.560;2023-11-22T01:26:37;9.90;61.30
56729;DHT22;42612;52.232;7.560;2023-11-22T01:29:04;9.90;61.10
56729;DHT22;42612;52.232;7.560;2023-11-22T01:31:30;9.90;61.00
56729;DHT22;42612;52.232;7.560;2023-11-22T01:33:58;9.90;60.90
56729;DHT22;42612;52.232;7.560;2023-11-22T01:36:24;9.80;60.90
56729;DHT22;42612;52.232;7.560;2023-11-22T01:38:51;9.90;60.90
56729;DHT22;42612;52.232;7.560;2023-11-22T01:41:17;9.80;60.60
56729;DHT22;42612;52.232;7.560;2023-11-22T01:43:43;9.80;60.50
56729;DHT22;42612;52.232;7.560;2023-11-22T01:46:10;9.70;60.30
56729;DHT22;42612;52.232;7.560;2023-11-22T01:48:51;9.60;60.30
56729;DHT22;42612;52.232;7.560;2023-11-22T01:51:22;9.60;60.50
56729;DHT22;42612;52.232;7.560;2023-11-22T01:53:51;9.50;60.20
56729;DHT22;42612;52.232;7.560;2023-11-22T01:56:20;9.50;60.30
56729;DHT22;42612;52.232;7.560;2023-11-22T01:58:47;9.40;60.30
56729;DHT22;42612;52.232;7.560;2023-11-22T02:01:13;9.30;60.20
56729;DHT22;42612;52.232;7.560;2023-11-22T02:03:39;9.20;60.30
56729;DHT22;42612;52.232;7.560;2023-11-22T02:06:05;9.20;60.40
56729;DHT22;42612;52.232;7.560;2023-11-22T02:08:31;9.10;60.50
56729;DHT22;42612;52.232;7.560;2023-11-22T02:10:58;9.00;60.60
56729;DHT22;42612;52.232;7.560;2023-11-22T02:13:24;9.00;60.70
56729;DHT22;42612;52.232;7.560;2023-11-22T02:15:50;9.00;60.70
56729;DHT22;42612;52.232;7.560;2023-11-22T02:18:17;8.90;60.70
56729;DHT22;42612;52.232;7.560;2023-11-22T02:20:43;8.90;60.80
56729;DHT22;42612;52.232;7.560;2023-11-22T02:23:10;8.90;60.90
56729;DHT22;42612;52.232;7.560;2023-11-22T02:25:36;8.90;61.00
56729;DHT22;42612;52.232;7.560;2023-11-22T02:28:03;8.90;61.20
56729;DHT22;42612;52.232;7.560;2023-11-22T02:30:29;8.90;61.30
56729;DHT22;42612;52.232;7.560;2023-11-22T02:32:54;9.00;61.40
56729;DHT22;42612;52.232;7.560;2023-11-22T02:35:20;9.00;61.50
56729;DHT22;42612;52.232;7.560;2023-11-22T02:37:46;9.10;61.40
56729;DHT22;42612;52.232;7.560;2023-11-22T02:40:20;9.10;61.30
56729;DHT22;42612;52.232;7.560;2023-11-22T02:42:47;9.20;61.30
56729;DHT22;42612;52.232;7.560;2023-11-22T02:45:19;9.20;61.40
56729;DHT22;42612;52.232;7.560;2023-11-22T02:47:48;9.20;61.40
56729;DHT22;42612;52.232;7.560;2023-11-22T02:50:17;9.30;61.40
56729;DHT22;42612;52.232;7.560;2023-11-22T02:52:43;9.30;61.30
56729;DHT22;42612;52.232;7.560;2023-11-22T02:55:09;9.40;61.30
56729;DHT22;42612;52.232;7.560;2023-11-22T02:57:36;9.40;61.10
56729;DHT22;42612;52.232;7.560;2023-11-22T03:00:04;9.50;60.90
56729;DHT22;42612;52.232;7.560;2023-11-22T03:02:30;9.40;60.70
56729;DHT22;42612;52.232;7.560;2023-11-22T03:04:57;9.50;60.50
56729;DHT22;42612;52.232;7.560;2023-11-22T03:07:25;9.50;60.60
56729;DHT22;42612;52.232;7.560;2023-11-22T03:09:51;9.50;60.30
56729;DHT22;42612;52.232;7.560;2023-11-22T03:12:18;9.50;60.20
56729;DHT22;42612;52.232;7.560;2023-11-22T03:14:46;9.50;60.20
56729;DHT22;42612;52.232;7.560;2023-11-22T03:17:11;9.50;60.20
56729;DHT22;42612;52.232;7.560;2023-11-22T03:19:38;9.50;60.10
56729;DHT22;42612;52.232;7.560;2023-11-22T03:22:05;9.50;60.10
56729;DHT22;42612;52.232;7.560;2023-11-22T03:24:32;9.40;60.00
56729;DHT22;42612;52.232;7.560;2023-11-22T03:27:02;9.40;59.90
56729;DHT22;42612;52.232;7.560;2023-11-22T03:29:29;9.40;60.00
56729;DHT22;42612;52.232;7.560;2023-11-22T03:31:54;9.40;60.70
56729;DHT22;42612;52.232;7.560;2023-11-22T03:34:20;9.40;60.10
56729;DHT22;42612;52.232;7.560;2023-11-22T03:36:46;9.40;60.10
56729;DHT22;42612;52.232;7.560;2023-11-22T03:39:12;9.30;60.00
56729;DHT22;42612;52.232;7.560;2023-11-22T03:41:41;9.40;60.00
56729;DHT22;42612;52.232;7.560;2023-11-22T03:44:07;9.40;60.00
56729;DHT22;42612;52.232;7.560;2023-11-22T03:46:37;9.30;59.90
56729;DHT22;42612;52.232;7.560;2023-11-22T03:49:04;9.30;59.80
56729;DHT22;42612;52.232;7.560;2023-11-22T03:51:32;9.30;59.70
56729;DHT22;42612;52.232;7.560;2023-11-22T03:53:59;9.30;59.70
56729;DHT22;42612;52.232;7.560;2023-11-22T03:56:25;9.30;59.50
56729;DHT22;42612;52.232;7.560;2023-11-22T03:58:51;9.20;59.40
56729;DHT22;42612;52.232;7.560;2023-11-22T04:01:17;9.20;59.20
56729;DHT22;42612;52.232;7.560;2023-11-22T04:03:44;9.10;59.20
56729;DHT22;42612;52.232;7.560;2023-11-22T04:06:09;9.10;59.30
56729;DHT22;42612;52.232;7.560;2023-11-22T04:08:35;9.10;59.40
56729;DHT22;42612;52.232;7.560;2023-11-22T04:11:01;9.00;59.50
56729;DHT22;42612;52.232;7.560;2023-11-22T04:13:27;8.90;59.40
56729;DHT22;42612;52.232;7.560;2023-11-22T04:15:53;8.90;59.60
56729;DHT22;42612;52.232;7.560;2023-11-22T04:18:18;8.90;60.20
56729;DHT22;42612;52.232;7.560;2023-11-22T04:20:44;8.90;59.50
56729;DHT22;42612;52.232;7.560;2023-11-22T04:23:11;8.90;59.40
56729;DHT22;42612;52.232;7.560;2023-11-22T04:25:39;8.90;59.40
56729;DHT22;42612;52.232;7.560;2023-11-22T04:28:07;8.90;59.40
56729;DHT22;42612;52.232;7.560;2023-11-22T04:30:34;8.80;59.30
56729;DHT22;42612;52.232;7.560;2023-11-22T04:33:00;8.80;59.40
56729;DHT22;42612;52.232;7.560;2023-11-22T04:35:27;8.80;59.40
56729;DHT22;42612;52.232;7.560;2023-11-22T04:37:53;8.80;59.50
56729;DHT22;42612;52.232;7.560;2023-11-22T04:40:20;8.80;59.40
56729;DHT22;42612;52.232;7.560;2023-11-22T04:42:46;8.80;59.40
56729;DHT22;42612;52.232;7.560;2023-11-22T04:45:13;8.80;59.40
56729;DHT22;42612;52.232;7.560;2023-11-22T04:47:39;8.80;59.40
56729;DHT22;42612;52.232;7.560;2023-11-22T04:50:05;8.80;59.40
56729;DHT22;42612;52.232;7.560;2023-11-22T04:52:32;8.80;59.40
56729;DHT22;42612;52.232;7.560;2023-11-22T04:54:58;8.80;59.40
56729;DHT22;42612;52.232;7.560;2023-11-22T04:57:23;8.70;59.50
56729;DHT22;42612;52.232;7.560;2023-11-22T04:59:49;8.70;59.50
56729;DHT22;42612;52.232;7.560;2023-11-22T05:02:15;8.70;59.50
56729;DHT22;42612;52.232;7.560;2023-11-22T05:04:41;8.70;59.40
56729;DHT22;42612;52.232;7.560;2023-11-22T05:07:08;8.70;59.30
56729;DHT22;42612;52.232;7.560;2023-11-22T05:09:34;8.70;59.20
56729;DHT22;42612;52.232;7.560;2023-11-22T05:12:00;8.70;59.20
56729;DHT22;42612;52.232;7.560;2023-11-22T05:14:25;8.70;59.00
56729;DHT22;42612;52.232;7.560;2023-11-22T05:16:52;8.60;58.90
56729;DHT22;42612;52.232;7.560;2023-11-22T05:19:19;8.60;58.90
56729;DHT22;42612;52.232;7.560;2023-11-22T05:21:44;8.60;58.80
56729;DHT22;42612;52.232;7.560;2023-11-22T05:24:10;8.60;58.90
56729;DHT22;42612;52.232;7.560;2023-11-22T05:26:36;8.50;58.90
56729;DHT22;42612;52.232;7.560;2023-11-22T05:29:02;8.50;58.90
56729;DHT22;42612;52.232;7.560;2023-11-22T05:31:30;8.50;59.00
56729;DHT22;42612;52.232;7.560;2023-11-22T05:33:55;8.50;59.00
56729;DHT22;42612;52.232;7.560;2023-11-22T05:36:21;8.50;58.90
56729;DHT22;42612;52.232;7.560;2023-11-22T05:38:47;8.40;58.90
56729;DHT22;42612;52.232;7.560;2023-11-22T05:41:12;8.40;58.80
56729;DHT22;42612;52.232;7.560;2023-11-22T05:43:38;8.40;58.80
56729;DHT22;42612;52.232;7.560;2023-11-22T05:46:04;8.40;58.80
56729;DHT22;42612;52.232;7.560;2023-11-22T05:48:30;8.40;58.80
56729;DHT22;42612;52.232;7.560;2023-11-22T05:50:56;8.30;58.70
56729;DHT22;42612;52.232;7.560;2023-11-22T05:53:21;8.30;58.60
56729;DHT22;42612;52.232;7.560;2023-11-22T05:55:48;8.30;58.60
56729;DHT22;42612;52.232;7.560;2023-11-22T05:58:14;8.30;58.60
56729;DHT22;42612;52.232;7.560;2023-11-22T06:00:44;8.30;58.50
56729;DHT22;42612;52.232;7.560;2023-11-22T06:03:13;8.20;58.60
56729;DHT22;42612;52.232;7.560;2023-11-22T06:05:39;8.20;58.50
56729;DHT22;42612;52.232;7.560;2023-11-22T06:08:06;8.20;58.60
56729;DHT22;42612;52.232;7.560;2023-11-22T06:10:32;8.20;58.60
56729;DHT22;42612;52.232;7.560;2023-11-22T06:12:58;8.10;58.50
56729;DHT22;42612;52.232;7.560;2023-11-22T06:15:23;8.10;58.50
56729;DHT22;42612;52.232;7.560;2023-11-22T06:17:49;8.10;58.60
56729;DHT22;42612;52.232;7.560;2023-11-22T06:20:15;8.10;58.50
56729;DHT22;42612;52.232;7.560;2023-11-22T06:22:41;8.00;58.40
56729;DHT22;42612;52.232;7.560;2023-11-22T06:25:11;8.00;59.10
56729;DHT22;42612;52.232;7.560;2023-11-22T06:27:38;8.00;58.40
56729;DHT22;42612;52.232;7.560;2023-11-22T06:30:04;8.00;58.40
56729;DHT22;42612;52.232;7.560;2023-11-22T06:32:34;8.00;58.40
56729;DHT22;42612;52.232;7.560;2023-11-22T06:35:00;8.00;58.30
56729;DHT22;42612;52.232;7.560;2023-11-22T06:37:26;7.90;58.20
56729;DHT22;42612;52.232;7.560;2023-11-22T06:39:52;7.90;58.20
56729;DHT22;42612;52.232;7.560;2023-11-22T06:42:18;7.90;58.20
56729;DHT22;42612;52.232;7.560;2023-11-22T06:44:47;7.80;58.10
56729;DHT22;42612;52.232;7.560;2023-11-22T06:47:13;7.80;58.20
56729;DHT22;42612;52.232;7.560;2023-11-22T06:49:39;7.80;58.20
56729;DHT22;42612;52.232;7.560;2023-11-22T06:52:05;7.80;58.20
56729;DHT22;42612;52.232;7.560;2023-11-22T06:54:31;7.80;58.20
56729;DHT22;42612;52.232;7.560;2023-11-22T06:56:57;7.70;58.10
56729;DHT22;42612;52.232;7.560;2023-11-22T06:59:22;7.70;58.10
56729;DHT22;42612;52.232;7.560;2023-11-22T07:01:48;7.70;58.20
56729;DHT22;42612;52.232;7.560;2023-11-22T07:04:14;7.70;58.20
56729;DHT22;42612;52.232;7.560;2023-11-22T07:06:40;7.70;58.20
56729;DHT22;42612;52.232;7.560;2023-11-22T07:09:06;7.70;58.20
56729;DHT22;42612;52.232;7.560;2023-11-22T07:11:35;7.70;58.30
56729;DHT22;42612;52.232;7.560;2023-11-22T07:14:02;7.60;58.30
56729;DHT22;42612;52.232;7.560;2023-11-22T07:16:29;7.60;58.30
56729;DHT22;42612;52.232;7.560;2023-11-22T07:18:56;7.60;58.20
56729;DHT22;42612;52.232;7.560;2023-11-22T07:21:22;7.60;58.30
56729;DHT22;42612;52.232;7.560;2023-11-22T07:23:48;7.60;58.30
56729;DHT22;42612;52.232;7.560;2023-11-22T07:26:14;7.60;58.40
56729;DHT22;42612;52.232;7.560;2023-11-22T07:28:40;7.60;58.40
56729;DHT22;42612;52.232;7.560;2023-11-22T07:31:09;7.60;59.00
56729;DHT22;42612;52.232;7.560;2023-11-22T07:33:36;7.60;58.20
56729;DHT22;42612;52.232;7.560;2023-11-22T07:36:05;7.60;58.30
56729;DHT22;42612;52.232;7.560;2023-11-22T07:38:31;7.60;58.40
56729;DHT22;42612;52.232;7.560;2023-11-22T07:40:57;7.60;58.40
56729;DHT22;42612;52.232;7.560;2023-11-22T07:43:23;7.60;58.40
56729;DHT22;42612;52.232;7.560;2023-11-22T07:45:49;7.60;58.50
56729;DHT22;42612;52.232;7.560;2023-11-22T07:48:16;7.60;58.60
56729;DHT22;42612;52.232;7.560;2023-11-22T07:50:43;7.60;58.70
56729;DHT22;42612;52.232;7.560;2023-11-22T07:53:10;7.60;58.70
56729;DHT22;42612;52.232;7.560;2023-11-22T07:55:37;7.60;58.60
56729;DHT22;42612;52.232;7.560;2023-11-22T07:58:03;7.60;58.70
56729;DHT22;42612;52.232;7.560;2023-11-22T08:00:32;7.60;58.70
56729;DHT22;42612;52.232;7.560;2023-11-22T08:03:02;7.60;58.70
56729;DHT22;42612;52.232;7.560;2023-11-22T08:05:31;7.60;58.70
56729;DHT22;42612;52.232;7.560;2023-11-22T08:08:05;7.60;58.70
56729;DHT22;42612;52.232;7.560;2023-11-22T08:10:34;7.60;58.70
56729;DHT22;42612;52.232;7.560;2023-11-22T08:13:01;7.60;58.70
56729;DHT22;42612;52.232;7.560;2023-11-22T08:15:29;7.60;58.80
56729;DHT22;42612;52.232;7.560;2023-11-22T08:17:57;7.60;58.80
56729;DHT22;42612;52.232;7.560;2023-11-22T08:20:24;7.60;58.80
56729;DHT22;42612;52.232;7.560;2023-11-22T08:22:50;7.60;58.90
56729;DHT22;42612;52.232;7.560;2023-11-22T08:25:17;7.70;59.00
56729;DHT22;42612;52.232;7.560;2023-11-22T08:27:43;7.70;59.00
56729;DHT22;42612;52.232;7.560;2023-11-22T08:30:09;7.70;59.00
56729;DHT22;42612;52.232;7.560;2023-11-22T08:32:42;7.70;59.00
56729;DHT22;42612;52.232;7.560;2023-11-22T08:35:10;7.70;59.00
56729;DHT22;42612;52.232;7.560;2023-11-22T08:37:37;7.70;59.10
56729;DHT22;42612;52.232;7.560;2023-11-22T08:40:06;7.80;59.20
56729;DHT22;42612;52.232;7.560;2023-11-22T08:42:33;7.80;59.20
56729;DHT22;42612;52.232;7.560;2023-11-22T08:45:01;7.80;59.20
56729;DHT22;42612;52.232;7.560;2023-11-22T08:47:30;7.80;59.30
56729;DHT22;42612;52.232;7.560;2023-11-22T08:49:57;7.80;59.30
56729;DHT22;42612;52.232;7.560;2023-11-22T08:52:23;7.80;59.30
56729;DHT22;42612;52.232;7.560;2023-11-22T08:54:50;7.90;59.30
56729;DHT22;42612;52.232;7.560;2023-11-22T08:57:17;7.90;59.30
56729;DHT22;42612;52.232;7.560;2023-11-22T08:59:43;7.90;59.40
56729;DHT22;42612;52.232;7.560;2023-11-22T09:02:09;7.90;59.50
56729;DHT22;42612;52.232;7.560;2023-11-22T09:04:37;8.00;60.30
56729;DHT22;42612;52.232;7.560;2023-11-22T09:07:04;8.00;59.80
56729;DHT22;42612;52.232;7.560;2023-11-22T09:09:31;8.00;59.80
56729;DHT22;42612;52.232;7.560;2023-11-22T09:11:58;8.10;59.90
56729;DHT22;42612;52.232;7.560;2023-11-22T09:14:24;8.10;59.90
56729;DHT22;42612;52.232;7.560;2023-11-22T09:16:50;8.10;60.00
56729;DHT22;42612;52.232;7.560;2023-11-22T09:19:21;8.20;60.00
56729;DHT22;42612;52.232;7.560;2023-11-22T09:21:47;8.20;60.10
56729;DHT22;42612;52.232;7.560;2023-11-22T09:24:13;8.30;60.00
56729;DHT22;42612;52.232;7.560;2023-11-22T09:26:39;8.30;60.00
56729;DHT22;42612;52.232;7.560;2023-11-22T09:29:05;8.30;60.10
56729;DHT22;42612;52.232;7.560;2023-11-22T09:31:31;8.40;60.10
56729;DHT22;42612;52.232;7.560;2023-11-22T09:33:56;8.40;60.10
56729;DHT22;42612;52.232;7.560;2023-11-22T09:36:22;8.40;60.10
56729;DHT22;42612;52.232;7.560;2023-11-22T09:38:50;8.50;60.20
56729;DHT22;42612;52.232;7.560;2023-11-22T09:41:17;8.50;60.10
56729;DHT22;42612;52.232;7.560;2023-11-22T09:43:43;8.50;60.10
56729;DHT22;42612;52.232;7.560;2023-11-22T09:46:11;8.60;60.20
56729;DHT22;42612;52.232;7.560;2023-11-22T09:48:39;8.60;60.20
56729;DHT22;42612;52.232;7.560;2023-11-22T09:53:46;8.70;60.10
56729;DHT22;42612;52.232;7.560;2023-11-22T09:56:19;8.70;60.00
56729;DHT22;42612;52.232;7.560;2023-11-22T09:58:45;8.70;60.10
56729;DHT22;42612;52.232;7.560;2023-11-22T10:01:12;8.80;60.10
56729;DHT22;42612;52.232;7.560;2023-11-22T10:03:40;8.80;60.00
56729;DHT22;42612;52.232;7.560;2023-11-22T10:06:07;8.80;60.00
56729;DHT22;42612;52.232;7.560;2023-11-22T10:08:33;8.80;60.00
56729;DHT22;42612;52.232;7.560;2023-11-22T10:11:00;8.90;60.00
56729;DHT22;42612;52.232;7.560;2023-11-22T10:13:27;9.00;60.00
56729;DHT22;42612;52.232;7.560;2023-11-22T10:15:53;9.00;60.10
56729;DHT22;42612;52.232;7.560;2023-11-22T10:18:20;9.00;60.10
56729;DHT22;42612;52.232;7.560;2023-11-22T10:20:48;9.00;60.10
56729;DHT22;42612;52.232;7.560;2023-11-22T10:23:19;9.10;60.00
56729;DHT22;42612;52.232;7.560;2023-11-22T10:25:51;9.10;59.90
56729;DHT22;42612;52.232;7.560;2023-11-22T10:28:19;9.10;59.90
56729;DHT22;42612;52.232;7.560;2023-11-22T10:30:49;9.20;60.00
56729;DHT22;42612;52.232;7.560;2023-11-22T10:33:17;9.20;59.80
56729;DHT22;42612;52.232;7.560;2023-11-22T10:35:46;9.30;60.10
56729;DHT22;42612;52.232;7.560;2023-11-22T10:38:14;9.30;60.10
56729;DHT22;42612;52.232;7.560;2023-11-22T10:40:40;9.30;60.10
56729;DHT22;42612;52.232;7.560;2023-11-22T10:43:11;9.40;60.10
56729;DHT22;42612;52.232;7.560;2023-11-22T10:45:37;9.40;60.10
56729;DHT22;42612;52.232;7.560;2023-11-22T10:48:05;9.40;60.10
56729;DHT22;42612;52.232;7.560;2023-11-22T10:50:31;9.40;60.20
56729;DHT22;42612;52.232;7.560;2023-11-22T10:52:58;9.50;60.20
56729;DHT22;42612;52.232;7.560;2023-11-22T10:55:32;9.50;60.00
56729;DHT22;42612;52.232;7.560;2023-11-22T10:58:02;9.50;59.50
56729;DHT22;42612;52.232;7.560;2023-11-22T11:00:32;9.50;59.50
56729;DHT22;42612;52.232;7.560;2023-11-22T11:03:07;9.60;59.50
56729;DHT22;42612;52.232;7.560;2023-11-22T11:05:36;9.60;59.30
56729;DHT22;42612;52.232;7.560;2023-11-22T11:08:12;9.70;59.40
56729;DHT22;42612;52.232;7.560;2023-11-22T11:10:46;9.70;59.10
56729;DHT22;42612;52.232;7.560;2023-11-22T11:13:15;9.70;59.00
56729;DHT22;42612;52.232;7.560;2023-11-22T11:15:42;9.80;59.80
56729;DHT22;42612;52.232;7.560;2023-11-22T11:18:14;9.80;58.90
56729;DHT22;42612;52.232;7.560;2023-11-22T11:20:50;9.80;58.60
56729;DHT22;42612;52.232;7.560;2023-11-22T11:23:19;9.90;58.10
56729;DHT22;42612;52.232;7.560;2023-11-22T11:25:50;9.90;58.40
56729;DHT22;42612;52.232;7.560;2023-11-22T11:28:16;9.90;58.10
56729;DHT22;42612;52.232;7.560;2023-11-22T11:30:45;10.00;58.40
56729;DHT22;42612;52.232;7.560;2023-11-22T11:33:18;10.00;58.10
56729;DHT22;42612;52.232;7.560;2023-11-22T11:35:49;10.00;58.20
56729;DHT22;42612;52.232;7.560;2023-11-22T11:38:19;10.10;58.00
56729;DHT22;42612;52.232;7.560;2023-11-22T11:40:47;10.10;58.00
56729;DHT22;42612;52.232;7.560;2023-11-22T11:43:13;10.10;58.10
56729;DHT22;42612;52.232;7.560;2023-11-22T11:45:41;10.10;57.60
56729;DHT22;42612;52.232;7.560;2023-11-22T11:48:16;10.10;57.90
56729;DHT22;42612;52.232;7.560;2023-11-22T11:50:43;10.10;57.80
56729;DHT22;42612;52.232;7.560;2023-11-22T11:53:12;10.10;57.80
56729;DHT22;42612;52.232;7.560;2023-11-22T11:55:38;10.10;57.80
56729;DHT22;42612;52.232;7.560;2023-11-22T11:58:07;10.20;57.60
56729;DHT22;42612;52.232;7.560;2023-11-22T12:00:38;10.20;56.90
56729;DHT22;42612;52.232;7.560;2023-11-22T12:03:09;10.20;57.00
56729;DHT22;42612;52.232;7.560;2023-11-22T12:05:38;10.30;56.50
56729;DHT22;42612;52.232;7.560;2023-11-22T12:08:04;10.30;56.40
56729;DHT22;42612;52.232;7.560;2023-11-22T12:10:30;10.40;55.90
56729;DHT22;42612;52.232;7.560;2023-11-22T12:12:56;10.40;55.80
56729;DHT22;42612;52.232;7.560;2023-11-22T12:15:24;10.50;55.90
56729;DHT22;42612;52.232;7.560;2023-11-22T12:17:50;10.50;56.00
56729;DHT22;42612;52.232;7.560;2023-11-22T12:20:17;10.50;55.80
56729;DHT22;42612;52.232;7.560;2023-11-22T12:22:47;10.60;55.80
56729;DHT22;42612;52.232;7.560;2023-11-22T12:25:13;10.60;55.20
56729;DHT22;42612;52.232;7.560;2023-11-22T12:27:43;10.70;55.70
56729;DHT22;42612;52.232;7.560;2023-11-22T12:30:31;10.80;54.70
56729;DHT22;42612;52.232;7.560;2023-11-22T12:33:05;10.80;53.00
56729;DHT22;42612;52.232;7.560;2023-11-22T12:35:35;10.90;53.80
56729;DHT22;42612;52.232;7.560;2023-11-22T12:38:02;10.90;54.30
56729;DHT22;42612;52.232;7.560;2023-11-22T12:40:31;11.00;54.20
56729;DHT22;42612;52.232;7.560;2023-11-22T12:42:57;11.00;54.00
56729;DHT22;42612;52.232;7.560;2023-11-22T12:45:26;11.10;53.70
56729;DHT22;42612;52.232;7.560;2023-11-22T12:47:54;11.10;53.40
56729;DHT22;42612;52.232;7.560;2023-11-22T12:50:37;11.10;53.60
56729;DHT22;42612;52.232;7.560;2023-11-22T12:53:09;11.20;51.30
56729;DHT22;42612;52.232;7.560;2023-11-22T12:55:48;11.30;52.40
56729;DHT22;42612;52.232;7.560;2023-11-22T12:58:25;11.30;50.90
56729;DHT22;42612;52.232;7.560;2023-11-22T13:00:55;11.30;50.90
56729;DHT22;42612;52.232;7.560;2023-11-22T13:03:26;11.30;51.50
56729;DHT22;42612;52.232;7.560;2023-11-22T13:05:52;11.30;52.20
56729;DHT22;42612;52.232;7.560;2023-11-22T13:08:18;11.30;52.10
56729;DHT22;42612;52.232;7.560;2023-11-22T13:10:45;11.30;52.00
56729;DHT22;42612;52.232;7.560;2023-11-22T13:13:13;11.30;52.10
56729;DHT22;42612;52.232;7.560;2023-11-22T13:15:39;11.20;51.80
56729;DHT22;42612;52.232;7.560;2023-11-22T13:18:08;11.20;52.00
56729;DHT22;42612;52.232;7.560;2023-11-22T13:20:34;11.20;52.30
56729;DHT22;42612;52.232;7.560;2023-11-22T13:23:00;11.10;52.30
56729;DHT22;42612;52.232;7.560;2023-11-22T13:25:28;11.10;52.30
56729;DHT22;42612;52.232;7.560;2023-11-22T13:27:54;11.10;52.50
56729;DHT22;42612;52.232;7.560;2023-11-22T13:30:21;11.10;52.30
56729;DHT22;42612;52.232;7.560;2023-11-22T13:32:51;11.00;51.10
56729;DHT22;42612;52.232;7.560;2023-11-22T13:35:18;11.00;51.40
56729;DHT22;42612;52.232;7.560;2023-11-22T13:37:45;11.00;51.00
56729;DHT22;42612;52.232;7.560;2023-11-22T13:40:12;10.90;50.80
56729;DHT22;42612;52.232;7.560;2023-11-22T13:42:49;10.90;50.90
56729;DHT22;42612;52.232;7.560;2023-11-22T13:45:16;10.80;50.50
56729;DHT22;42612;52.232;7.560;2023-11-22T13:47:46;10.70;50.60
56729;DHT22;42612;52.232;7.560;2023-11-22T13:50:14;10.70;50.80
56729;DHT22;42612;52.232;7.560;2023-11-22T13:52:44;10.70;51.10
56729;DHT22;42612;52.232;7.560;2023-11-22T13:55:11;10.60;51.20
56729;DHT22;42612;52.232;7.560;2023-11-22T13:57:38;10.60;51.00
56729;DHT22;42612;52.232;7.560;2023-11-22T14:00:09;10.60;51.70
56729;DHT22;42612;52.232;7.560;2023-11-22T14:02:40;10.60;50.20
56729;DHT22;42612;52.232;7.560;2023-11-22T14:05:07;10.60;50.60
56729;DHT22;42612;52.232;7.560;2023-11-22T14:07:36;10.50;50.50
56729;DHT22;42612;52.232;7.560;2023-11-22T14:10:03;10.50;50.40
56729;DHT22;42612;52.232;7.560;2023-11-22T14:12:30;10.50;50.20
56729;DHT22;42612;52.232;7.560;2023-11-22T14:14:59;10.50;49.50
56729;DHT22;42612;52.232;7.560;2023-11-22T14:17:25;10.40;50.80
56729;DHT22;42612;52.232;7.560;2023-11-22T14:19:52;10.40;50.70
56729;DHT22;42612;52.232;7.560;2023-11-22T14:22:19;10.40;50.80
56729;DHT22;42612;52.232;7.560;2023-11-22T14:24:46;10.30;50.90
56729;DHT22;42612;52.232;7.560;2023-11-22T14:27:12;10.30;50.40
56729;DHT22;42612;52.232;7.560;2023-11-22T14:29:38;10.30;51.30
56729;DHT22;42612;52.232;7.560;2023-11-22T14:32:04;10.30;51.00
56729;DHT22;42612;52.232;7.560;2023-11-22T14:34:30;10.30;51.10
56729;DHT22;42612;52.232;7.560;2023-11-22T14:36:56;10.20;51.20
56729;DHT22;42612;52.232;7.560;2023-11-22T14:39:22;10.20;51.10
56729;DHT22;42612;52.232;7.560;2023-11-22T14:41:47;10.20;51.20
56729;DHT22;42612;52.232;7.560;2023-11-22T14:44:13;10.20;51.30
56729;DHT22;42612;52.232;7.560;2023-11-22T14:46:39;10.20;51.20
56729;DHT22;42612;52.232;7.560;2023-11-22T14:49:05;10.20;51.30
56729;DHT22;42612;52.232;7.560;2023-11-22T14:51:31;10.10;51.40
56729;DHT22;42612;52.232;7.560;2023-11-22T14:53:59;10.10;51.40
56729;DHT22;42612;52.232;7.560;2023-11-22T14:56:24;10.10;51.30
56729;DHT22;42612;52.232;7.560;2023-11-22T14:58:50;10.10;51.40
56729;DHT22;42612;52.232;7.560;2023-11-22T15:01:21;10.10;51.40
56729;DHT22;42612;52.232;7.560;2023-11-22T15:03:49;10.10;51.50
56729;DHT22;42612;52.232;7.560;2023-11-22T15:06:15;10.00;51.50
56729;DHT22;42612;52.232;7.560;2023-11-22T15:08:41;10.00;51.50
56729;DHT22;42612;52.232;7.560;2023-11-22T15:11:07;10.00;51.70
56729;DHT22;42612;52.232;7.560;2023-11-22T15:13:34;10.00;51.50
56729;DHT22;42612;52.232;7.560;2023-11-22T15:16:01;10.00;51.70
56729;DHT22;42612;52.232;7.560;2023-11-22T15:18:27;9.90;51.40
56729;DHT22;42612;52.232;7.560;2023-11-22T15:20:53;10.00;51.50
56729;DHT22;42612;52.232;7.560;2023-11-22T15:23:19;9.90;51.60
56729;DHT22;42612;52.232;7.560;2023-11-22T15:25:47;9.90;51.60
56729;DHT22;42612;52.232;7.560;2023-11-22T15:28:13;9.90;51.50
56729;DHT22;42612;52.232;7.560;2023-11-22T15:30:48;9.90;51.50
56729;DHT22;42612;52.232;7.560;2023-11-22T15:33:15;9.90;51.40
56729;DHT22;42612;52.232;7.560;2023-11-22T15:35:41;9.80;51.30
56729;DHT22;42612;52.232;7.560;2023-11-22T15:38:07;9.80;51.40
56729;DHT22;42612;52.232;7.560;2023-11-22T15:40:33;9.80;51.40
56729;DHT22;42612;52.232;7.560;2023-11-22T15:42:58;9.80;51.40
56729;DHT22;42612;52.232;7.560;2023-11-22T15:45:24;9.70;51.40